Stephenville, Canada
Current Conditions -  °F | °C
As of 7:00 AM on Friday 31 Oct 2014 (Local Time) from CYJT Reporting Station
Broken Clouds Broken Clouds  
Wind Chill:   Ceiling: 2000
Heat Index:   Visibility: 15mi
Dew Point:   Wind: 6mph
Humidity: 76%   Direction: 300°WNW
Pressure: 29.86"   Gusts: NA
Location:  48.55°N, 58.58°W
Report Text: CYJT 310900Z 30005KT 15SM BKN020 06/02 A2986 RMK SC7 SLP112
Loading
Personal Weather Stations






























Interactive Weather Map
Tropical Storm Tracking
New forecast layout! Learn more

10-Day Weather Forecast

Advertisements
Track Severe Weather on mobile